Time;durP1;ratioP1;P1;durP2;ratioP2;P2;SDS_P1;SDS_P2;PMS_P1;PMS_P2;Temp;Humidity;BMP_temperature;BMP_pressure;BME280_temperature;BME280_humidity;BME280_pressure;Samples;Min_cycle;Max_cycle;Signal;HPM_P1;HPM_P2
2023/03/22 00:01:45;;;;;;;14.23;3.67;;;8.90;99.90;;;;;;5012537;28;20558;-71
2023/03/22 00:04:11;;;;;;;11.50;3.40;;;8.90;99.90;;;;;;5012722;28;20536;-72
2023/03/22 00:06:37;;;;;;;;;;;8.90;99.90;;;;;;5011617;28;20077;-72
2023/03/22 00:09:02;;;;;;;12.38;3.10;;;8.90;99.90;;;;;;5011055;28;20245;-71
2023/03/22 00:11:28;;;;;;;;;;;9.10;99.90;;;;;;5012925;28;20477;-71
2023/03/22 00:13:54;;;;;;;10.52;2.83;;;9.00;99.90;;;;;;5011320;28;19929;-71
2023/03/22 00:16:20;;;;;;;10.55;2.58;;;8.90;99.90;;;;;;5012596;28;20042;-71
2023/03/22 00:18:46;;;;;;;12.98;3.00;;;9.00;99.90;;;;;;5013037;28;20437;-71
2023/03/22 00:21:13;;;;;;;;;;;9.00;99.90;;;;;;5012042;28;20057;-71
2023/03/22 00:23:39;;;;;;;11.38;3.17;;;9.00;99.90;;;;;;5010935;28;19968;-71
2023/03/22 00:26:06;;;;;;;15.23;3.00;;;9.00;99.90;;;;;;5011766;28;20410;-71
2023/03/22 00:28:31;;;;;;;11.85;3.15;;;9.00;99.90;;;;;;5010843;28;20548;-71
2023/03/22 00:30:58;;;;;;;;;;;9.10;99.90;;;;;;5013090;28;20046;-71
2023/03/22 00:33:24;;;;;;;9.55;2.40;;;9.30;99.90;;;;;;5011089;28;20369;-71
2023/03/22 00:35:57;;;;;;;9.98;2.67;;;9.10;99.90;;;;;;5009012;28;20437;-71
2023/03/22 00:38:24;;;;;;;11.63;3.45;;;9.20;99.90;;;;;;5012162;28;20136;-71
2023/03/22 00:40:49;;;;;;;13.73;2.70;;;9.10;99.90;;;;;;5010907;28;20769;-71
2023/03/22 00:43:15;;;;;;;;;;;9.00;99.90;;;;;;5013076;28;20095;-71
2023/03/22 00:45:41;;;;;;;14.63;3.15;;;8.90;99.90;;;;;;5012544;28;19951;-71
2023/03/22 00:48:10;;;;;;;11.52;2.60;;;9.00;99.90;;;;;;5010474;28;20054;-71
2023/03/22 00:50:40;;;;;;;7.05;1.92;;;8.90;99.90;;;;;;5010715;28;20046;-71
2023/03/22 00:53:08;;;;;;;7.75;2.25;;;9.00;99.90;;;;;;5011543;28;20053;-72
2023/03/22 00:55:34;;;;;;;9.80;2.25;;;9.00;99.90;;;;;;5011941;28;20085;-71
2023/03/22 00:57:59;;;;;;;;;;;8.90;99.90;;;;;;5012327;28;20041;-71
2023/03/22 01:00:26;;;;;;;10.95;2.47;;;9.00;99.90;;;;;;5012621;28;20043;-71
2023/03/22 01:02:52;;;;;;;9.80;2.38;;;9.00;99.90;;;;;;5012170;28;20117;-71
2023/03/22 01:05:20;;;;;;;8.15;2.53;;;8.90;99.90;;;;;;5010601;28;20461;-71
2023/03/22 01:07:49;;;;;;;6.28;2.10;;;8.80;99.90;;;;;;5009950;28;20054;-71
2023/03/22 01:10:17;;;;;;;6.95;2.03;;;8.90;99.90;;;;;;5011079;28;20125;-71
2023/03/22 01:12:42;;;;;;;9.20;2.00;;;8.90;99.90;;;;;;5011163;28;20042;-71
2023/03/22 01:15:08;;;;;;;;;;;8.90;99.90;;;;;;5011661;28;20054;-71
2023/03/22 01:17:34;;;;;;;8.60;2.10;;;8.90;99.90;;;;;;5001436;28;19929;-71
2023/03/22 01:20:03;;;;;;;;;;;8.80;99.90;;;;;;4992987;28;20398;-71
2023/03/22 01:22:32;;;;;;;6.60;1.73;;;8.70;99.90;;;;;;4991465;28;19918;-71
2023/03/22 01:24:57;;;;;;;7.45;1.70;;;8.80;99.90;;;;;;4992232;28;20038;-71
2023/03/22 01:27:23;;;;;;;;;;;8.60;99.90;;;;;;4992165;28;20065;-71
2023/03/22 01:29:49;;;;;;;10.55;1.80;;;8.60;99.90;;;;;;4991098;28;19921;-71
2023/03/22 01:32:18;;;;;;;9.77;1.60;;;8.60;99.90;;;;;;4992452;28;20046;-71
2023/03/22 01:34:44;;;;;;;8.57;1.60;;;8.60;99.90;;;;;;4998622;28;20034;-71
2023/03/22 01:37:10;;;;;;;9.52;1.88;;;8.60;99.90;;;;;;4997184;28;20089;-70
2023/03/22 01:39:36;;;;;;;;;;;8.60;99.90;;;;;;4997696;28;20506;-71
2023/03/22 01:42:02;;;;;;;12.10;1.92;;;8.60;99.90;;;;;;4998346;28;19922;-71
2023/03/22 01:44:29;;;;;;;6.90;1.40;;;8.60;99.90;;;;;;4995829;28;20058;-71
2023/03/22 01:46:55;;;;;;;7.57;1.38;;;8.60;99.90;;;;;;4994353;28;20042;-71
2023/03/22 01:49:31;;;;;;;8.82;1.50;;;8.60;99.90;;;;;;4996347;28;20050;-71
2023/03/22 01:52:01;;;;;;;7.47;1.60;;;8.60;99.90;;;;;;4995521;28;20050;-71
2023/03/22 01:54:46;;;;;;;9.35;2.05;;;8.70;99.90;;;;;;4995364;28;20039;-71
2023/03/22 01:57:12;;;;;;;5.20;1.35;;;8.70;99.90;;;;;;4994612;28;20054;-71
2023/03/22 01:59:39;;;;;;;7.45;1.42;;;8.90;99.90;;;;;;4993612;28;20560;-71
2023/03/22 02:02:06;;;;;;;6.60;1.67;;;8.70;99.90;;;;;;4994533;28;20082;-71
2023/03/22 02:04:34;;;;;;;6.32;1.40;;;8.60;99.90;;;;;;4995160;28;20055;-72
2023/03/22 02:07:08;;;;;;;5.72;1.27;;;8.60;99.90;;;;;;4993599;28;20054;-72
2023/03/22 02:09:40;;;;;;;7.53;1.70;;;8.60;99.90;;;;;;4993969;28;20169;-71
2023/03/22 02:12:16;;;;;;;5.97;1.40;;;8.60;99.90;;;;;;4993945;28;20371;-71
2023/03/22 02:14:44;;;;;;;5.25;1.40;;;8.70;99.90;;;;;;4994828;28;20490;-71
2023/03/22 02:17:26;;;;;;;8.52;1.70;;;8.80;99.90;;;;;;4994287;28;20392;-71
2023/03/22 02:20:16;;;;;;;6.05;1.45;;;8.90;99.90;;;;;;4999067;28;20140;-71
2023/03/22 02:23:09;;;;;;;6.82;1.65;;;8.80;99.90;;;;;;5012251;28;20045;-71
2023/03/22 02:25:55;;;;;;;10.00;1.88;;;8.80;99.90;;;;;;5014705;28;20085;-71
2023/03/22 02:28:46;;;;;;;10.57;2.00;;;8.90;99.90;;;;;;5013720;28;20425;-71
2023/03/22 02:31:34;;;;;;;7.90;1.98;;;8.90;99.90;;;;;;5015058;28;20096;-71
2023/03/22 02:34:41;;;;;;;6.93;1.90;;;8.90;99.90;;;;;;5014111;28;20134;-71
2023/03/22 02:37:21;;;;;;;5.20;1.98;;;8.90;99.90;;;;;;4954760;28;20545;-71
2023/03/22 02:40:05;;;;;;;10.18;2.25;;;8.80;99.90;;;;;;4938018;29;20607;-71
2023/03/22 02:42:56;;;;;;;9.13;1.90;;;8.80;99.90;;;;;;4981270;28;20057;-71
2023/03/22 02:45:41;;;;;;;5.85;1.80;;;8.90;99.90;;;;;;4993283;28;20065;-72
2023/03/22 02:48:13;;;;;;;8.20;2.00;;;8.90;99.90;;;;;;4994351;28;20053;-71
2023/03/22 02:50:57;;;;;;;10.90;2.38;;;8.90;99.90;;;;;;4992919;28;20057;-71
2023/03/22 02:53:34;;;;;;;8.77;2.05;;;8.90;99.90;;;;;;4993092;28;20437;-71
2023/03/22 02:56:11;;;;;;;6.95;2.08;;;9.00;99.90;;;;;;4995553;28;20052;-70
2023/03/22 02:58:44;;;;;;;8.60;1.90;;;9.00;99.90;;;;;;5012836;28;20468;-71
2023/03/22 03:01:18;;;;;;;8.48;1.85;;;9.00;99.90;;;;;;5002294;28;20042;-71
2023/03/22 03:03:48;;;;;;;8.95;2.28;;;9.00;99.90;;;;;;4992949;28;20046;-71
2023/03/22 03:06:18;;;;;;;4.57;1.85;;;9.10;99.90;;;;;;5007542;28;20045;-72
2023/03/22 03:08:52;;;;;;;5.47;1.67;;;9.10;99.90;;;;;;5012090;28;20054;-72
2023/03/22 03:11:18;;;;;;;7.75;1.90;;;9.10;99.90;;;;;;5004855;28;20130;-71
2023/03/22 03:13:48;;;;;;;9.07;2.10;;;9.20;99.90;;;;;;4994447;28;20066;-72
2023/03/22 03:16:18;;;;;;;9.85;2.38;;;9.20;99.90;;;;;;4993910;28;20047;-71
2023/03/22 03:18:58;;;;;;;7.38;1.60;;;9.20;99.90;;;;;;5009428;28;20454;-72
2023/03/22 03:21:47;;;;;;;8.90;2.08;;;9.30;99.90;;;;;;5011332;28;20041;-71
2023/03/22 03:24:17;;;;;;;10.07;2.33;;;9.30;99.90;;;;;;5010948;28;20477;-72
2023/03/22 03:26:43;;;;;;;11.30;2.67;;;9.40;99.90;;;;;;5014115;28;20042;-71
2023/03/22 03:29:11;;;;;;;;;;;9.30;99.90;;;;;;5014176;28;20038;-72
2023/03/22 03:31:50;;;;;;;8.27;2.13;;;9.20;99.90;;;;;;5012859;28;19921;-71
2023/03/22 03:34:50;;;;;;;4.82;2.00;;;9.30;99.90;;;;;;5018813;28;20076;-71
2023/03/22 03:37:30;;;;;;;10.82;2.58;;;9.30;99.90;;;;;;5001959;28;20072;-72
2023/03/22 03:40:08;;;;;;;8.50;2.33;;;9.40;99.90;;;;;;4994313;28;20053;-71
2023/03/22 03:42:42;;;;;;;9.23;2.75;;;9.50;99.90;;;;;;4993262;28;20042;-71
2023/03/22 03:45:09;;;;;;;10.82;2.35;;;9.30;99.90;;;;;;4991929;28;20077;-71
2023/03/22 03:47:36;;;;;;;5.55;1.58;;;9.30;99.90;;;;;;4993679;28;20046;-72
2023/03/22 03:50:03;;;;;;;9.68;2.03;;;9.40;99.90;;;;;;4992581;28;20061;-71
2023/03/22 03:52:31;;;;;;;9.38;2.22;;;9.40;99.90;;;;;;4991671;28;20593;-71
2023/03/22 03:54:57;;;;;;;12.63;2.75;;;9.40;99.90;;;;;;4991578;28;20172;-71
2023/03/22 03:57:23;;;;;;;;;;;9.40;99.90;;;;;;4992638;28;20132;-71
2023/03/22 03:59:49;;;;;;;6.57;2.55;;;9.40;99.90;;;;;;5001799;28;20007;-71
2023/03/22 04:02:15;;;;;;;;;;;9.40;99.90;;;;;;5013641;28;20054;-71
2023/03/22 04:04:41;;;;;;;7.73;2.63;;;9.40;99.90;;;;;;5012053;28;19925;-71
2023/03/22 04:07:07;;;;;;;;;;;9.60;99.90;;;;;;5013525;28;20319;-71
2023/03/22 04:09:35;;;;;;;7.45;2.20;;;9.50;99.90;;;;;;5012492;28;19921;-72
2023/03/22 04:12:01;;;;;;;10.38;3.65;;;9.50;99.90;;;;;;5011534;28;20513;-71
2023/03/22 04:14:27;;;;;;;;;;;9.50;99.90;;;;;;5011833;28;20042;-72
2023/03/22 04:16:54;;;;;;;7.28;2.05;;;9.40;99.90;;;;;;5013065;28;19921;-72
2023/03/22 04:19:20;;;;;;;8.55;2.80;;;9.50;99.90;;;;;;5010772;28;20125;-71
2023/03/22 04:21:47;;;;;;;11.32;2.60;;;9.40;99.90;;;;;;5011360;28;20417;-71
2023/03/22 04:24:13;;;;;;;10.95;2.80;;;9.50;99.90;;;;;;5011641;28;20046;-71
2023/03/22 04:26:39;;;;;;;7.95;2.03;;;9.30;99.90;;;;;;5012128;28;20124;-71
2023/03/22 04:29:04;;;;;;;;;;;9.30;99.90;;;;;;5010364;28;20124;-71
2023/03/22 04:31:32;;;;;;;9.95;2.40;;;9.30;99.90;;;;;;5011234;28;19921;-72
2023/03/22 04:34:04;;;;;;;9.60;2.75;;;9.30;99.90;;;;;;5010362;28;20477;-72
2023/03/22 04:36:35;;;;;;;10.48;2.03;;;9.30;99.90;;;;;;4992687;28;20469;-72
2023/03/22 04:39:09;;;;;;;6.70;2.15;;;9.30;99.90;;;;;;4992099;28;20058;-72
2023/03/22 04:41:38;;;;;;;6.97;2.40;;;9.30;99.90;;;;;;4991071;28;20109;-71
2023/03/22 04:44:05;;;;;;;12.02;2.80;;;9.30;99.90;;;;;;4991780;28;20046;-71
2023/03/22 04:46:32;;;;;;;7.80;3.10;;;9.30;99.90;;;;;;4992211;28;20092;-71
2023/03/22 04:48:58;;;;;;;7.70;2.55;;;9.30;99.90;;;;;;4989569;28;20483;-71
2023/03/22 04:51:24;;;;;;;;;;;9.30;99.90;;;;;;5009895;28;20046;-72
2023/03/22 04:53:50;;;;;;;9.27;3.63;;;9.30;99.90;;;;;;4998047;28;19922;-71
2023/03/22 04:56:16;;;;;;;;;;;9.40;99.90;;;;;;4993149;28;20398;-71
2023/03/22 04:58:43;;;;;;;9.00;3.53;;;9.30;99.90;;;;;;4991198;28;19991;-71
2023/03/22 05:01:10;;;;;;;11.60;4.05;;;9.40;99.90;;;;;;4992936;28;20140;-71
2023/03/22 05:03:36;;;;;;;13.75;4.28;;;9.40;99.90;;;;;;4991466;28;20504;-71
2023/03/22 05:06:02;;;;;;;;;;;9.40;99.90;;;;;;4992594;28;20054;-73
2023/03/22 05:08:29;;;;;;;14.27;5.15;;;9.40;99.90;;;;;;4996044;28;19921;-72
2023/03/22 05:10:57;;;;;;;10.13;4.78;;;9.40;99.90;;;;;;5009171;28;20038;-73
2023/03/22 05:13:26;;;;;;;11.10;4.72;;;9.40;99.90;;;;;;5003447;28;20043;-72
2023/03/22 05:15:55;;;;;;;11.85;4.80;;;9.90;99.90;;;;;;4995731;28;20042;-72
2023/03/22 05:18:25;;;;;;;10.30;5.13;;;9.40;99.90;;;;;;4994602;28;20053;-72
2023/03/22 05:20:53;;;;;;;10.68;5.00;;;9.60;99.90;;;;;;5001444;28;20071;-72
2023/03/22 05:23:20;;;;;;;13.88;6.20;;;9.40;99.90;;;;;;4994371;28;20054;-72
2023/03/22 05:25:51;;;;;;;10.98;4.88;;;9.40;99.90;;;;;;4996164;28;20050;-72
2023/03/22 05:28:21;;;;;;;13.02;4.85;;;9.50;99.90;;;;;;4995086;28;20078;-72
2023/03/22 05:30:47;;;;;;;10.82;4.95;;;9.60;99.90;;;;;;4996134;28;20034;-71
2023/03/22 05:33:15;;;;;;;12.32;5.93;;;9.60;99.90;;;;;;4996449;28;20054;-71
2023/03/22 05:35:42;;;;;;;13.88;5.50;;;9.50;99.90;;;;;;4995909;28;20066;-72
2023/03/22 05:38:09;;;;;;;10.70;5.40;;;9.50;99.90;;;;;;4995157;28;20054;-71
2023/03/22 05:40:35;;;;;;;12.32;6.13;;;9.50;99.90;;;;;;4994557;28;20077;-72
2023/03/22 05:43:00;;;;;;;;;;;9.50;99.90;;;;;;4995706;28;20398;-73
2023/03/22 05:45:26;;;;;;;10.68;5.85;;;9.60;99.90;;;;;;4995214;28;19922;-72
2023/03/22 05:47:52;;;;;;;;;;;9.60;99.90;;;;;;4994844;28;20418;-74
2023/03/22 05:50:20;;;;;;;13.02;6.07;;;9.50;99.90;;;;;;4995459;28;20498;-74
2023/03/22 05:52:46;;;;;;;11.32;6.60;;;9.50;99.90;;;;;;4996725;28;20042;-76
2023/03/22 05:55:16;;;;;;;15.32;7.47;;;9.60;99.90;;;;;;5005201;28;20049;-72
2023/03/22 05:57:42;;;;;;;14.10;6.85;;;9.40;99.90;;;;;;5014352;28;20137;-74
2023/03/22 06:00:14;;;;;;;12.55;6.20;;;9.40;99.90;;;;;;5013659;28;20045;-74
2023/03/22 06:02:45;;;;;;;14.60;6.72;;;10.50;99.90;;;;;;5014605;28;20486;-90
2023/03/22 06:05:13;;;;;;;13.35;6.13;;;9.40;99.90;;;;;;5013481;28;20054;-87
2023/03/22 06:07:39;;;;;;;11.27;6.45;;;9.50;99.90;;;;;;5013343;28;20050;-76
2023/03/22 06:10:06;;;;;;;14.60;6.68;;;9.40;99.90;;;;;;5014974;28;20532;-76
2023/03/22 06:12:32;;;;;;;12.90;7.03;;;9.40;99.90;;;;;;5011266;28;20100;-71
2023/03/22 06:14:58;;;;;;;;;;;9.60;99.90;;;;;;5015751;28;20045;-73
2023/03/22 06:17:27;;;;;;;18.38;6.15;;;9.40;99.90;;;;;;5013746;28;19968;-72
2023/03/22 06:19:53;;;;;;;;;;;9.40;99.90;;;;;;5014337;28;20437;-73
2023/03/22 06:22:19;;;;;;;18.63;6.82;;;9.40;99.90;;;;;;5014252;28;19979;-73
2023/03/22 06:24:45;;;;;;;14.65;6.95;;;10.30;99.90;;;;;;4998398;28;20045;-73
2023/03/22 06:27:11;;;;;;;;;;;9.50;99.90;;;;;;5014148;28;20042;-74
2023/03/22 06:29:36;;;;;;;14.20;7.32;;;9.50;99.90;;;;;;5014453;28;19921;-74
2023/03/22 06:32:02;;;;;;;;;;;9.60;99.90;;;;;;5014792;28;20044;-73
2023/03/22 06:34:28;;;;;;;15.30;6.40;;;9.80;99.90;;;;;;5013362;28;19921;-72
2023/03/22 06:36:54;;;;;;;14.35;7.72;;;9.70;99.90;;;;;;5014082;28;20462;-72
2023/03/22 06:39:20;;;;;;;;;;;9.80;99.90;;;;;;4997702;28;20125;-73
2023/03/22 06:41:46;;;;;;;11.80;6.85;;;9.70;99.90;;;;;;5014190;28;19917;-73
2023/03/22 06:44:12;;;;;;;13.38;7.30;;;9.80;99.90;;;;;;5013498;28;20050;-73
2023/03/22 06:46:38;;;;;;;14.88;6.72;;;9.80;99.90;;;;;;5013517;28;20054;-73
2023/03/22 06:49:06;;;;;;;;;;;9.90;99.90;;;;;;5014506;28;20053;-72
2023/03/22 06:51:33;;;;;;;15.77;7.57;;;10.00;99.90;;;;;;5014227;28;20016;-72
2023/03/22 06:53:59;;;;;;;16.80;7.20;;;9.90;99.90;;;;;;5013292;28;20060;-72
2023/03/22 06:56:25;;;;;;;17.00;6.55;;;10.10;99.90;;;;;;5013858;28;20042;-72
2023/03/22 06:58:56;;;;;;;11.82;6.78;;;9.90;99.90;;;;;;5012908;28;20132;-72
2023/03/22 07:01:22;;;;;;;13.02;7.63;;;10.10;99.90;;;;;;5006512;28;20418;-72
2023/03/22 07:03:48;;;;;;;;;;;9.80;99.90;;;;;;4993324;28;20490;-71
2023/03/22 07:06:13;;;;;;;13.63;7.18;;;10.00;99.90;;;;;;4994709;28;19925;-76
2023/03/22 07:08:39;;;;;;;;;;;10.10;99.90;;;;;;4992805;28;20046;-70
2023/03/22 07:11:05;;;;;;;10.40;6.38;;;10.00;99.90;;;;;;4993483;28;20333;-75
2023/03/22 07:13:31;;;;;;;11.02;6.60;;;9.90;99.90;;;;;;4993031;28;20046;-79
2023/03/22 07:15:58;;;;;;;12.63;6.80;;;10.00;99.90;;;;;;4994096;28;20073;-74
2023/03/22 07:18:25;;;;;;;11.57;6.75;;;10.00;99.90;;;;;;5017832;28;20104;-71
2023/03/22 07:20:51;;;;;;;17.67;7.18;;;10.00;99.90;;;;;;5015865;28;20064;-71
2023/03/22 07:23:16;;;;;;;;;;;10.10;99.90;;;;;;5014711;28;20041;-71
2023/03/22 07:25:43;;;;;;;12.98;5.70;;;10.00;99.90;;;;;;5016994;28;19933;-71
2023/03/22 07:28:10;;;;;;;13.52;6.13;;;10.10;99.90;;;;;;5018933;28;20049;-74
2023/03/22 07:30:36;;;;;;;12.20;5.82;;;10.10;99.90;;;;;;5009124;28;20048;-71
2023/03/22 07:33:06;;;;;;;15.43;6.47;;;10.10;99.90;;;;;;5011559;28;20397;-70
2023/03/22 07:35:32;;;;;;;19.50;6.65;;;10.10;99.90;;;;;;5010676;28;20410;-71
2023/03/22 07:37:58;;;;;;;;;;;10.10;99.90;;;;;;5010432;28;20060;-71
2023/03/22 07:40:24;;;;;;;16.77;5.72;;;10.10;99.90;;;;;;4993947;28;19922;-72
2023/03/22 07:42:50;;;;;;;13.80;5.80;;;10.30;99.90;;;;;;4991231;28;20856;-72
2023/03/22 07:45:21;;;;;;;11.85;5.90;;;10.30;99.90;;;;;;4990227;28;20127;-71
2023/03/22 07:47:47;;;;;;;10.88;5.47;;;10.30;99.90;;;;;;4992189;28;20062;-71
2023/03/22 07:50:13;;;;;;;;;;;10.30;99.90;;;;;;4990601;28;20042;-72
2023/03/22 07:52:43;;;;;;;13.65;5.25;;;10.30;99.90;;;;;;4992030;28;20284;-74
2023/03/22 07:55:11;;;;;;;14.35;5.18;;;10.50;99.90;;;;;;4992514;28;20046;-73
2023/03/22 07:57:40;;;;;;;14.02;5.60;;;10.50;99.90;;;;;;4999903;28;20565;-73
2023/03/22 08:00:09;;;;;;;8.95;4.05;;;10.50;99.90;;;;;;5014813;28;20052;-73
2023/03/22 08:02:37;;;;;;;8.13;4.65;;;10.50;99.90;;;;;;5015076;28;20557;-72
2023/03/22 08:05:04;;;;;;;;;;;10.50;99.90;;;;;;5015802;28;20085;-73
2023/03/22 08:07:30;;;;;;;13.87;5.17;;;10.50;99.90;;;;;;5013147;28;19960;-73
2023/03/22 08:09:56;;;;;;;7.85;4.47;;;10.50;99.90;;;;;;5015984;28;20045;-75
2023/03/22 08:12:21;;;;;;;;;;;10.80;99.90;;;;;;5008876;28;20104;-72
2023/03/22 08:14:49;;;;;;;11.40;4.20;;;10.50;99.90;;;;;;5011821;28;20404;-73
2023/03/22 08:17:16;;;;;;;8.80;4.32;;;10.60;99.90;;;;;;5012701;28;20427;-73
2023/03/22 08:19:42;;;;;;;11.30;4.53;;;10.70;99.90;;;;;;5010128;28;20193;-73
2023/03/22 08:22:08;;;;;;;;;;;10.70;99.90;;;;;;5011205;28;20132;-72
2023/03/22 08:24:36;;;;;;;9.32;4.50;;;10.90;99.90;;;;;;5011545;28;19921;-73
2023/03/22 08:27:02;;;;;;;8.10;4.10;;;10.80;99.90;;;;;;5011966;28;20041;-73
2023/03/22 08:29:28;;;;;;;;;;;10.80;99.90;;;;;;5013210;28;20080;-72
2023/03/22 08:31:54;;;;;;;9.33;4.00;;;10.80;99.90;;;;;;5009946;28;19986;-73
2023/03/22 08:34:20;;;;;;;7.68;3.05;;;10.70;99.90;;;;;;5011095;28;20494;-73
2023/03/22 08:36:46;;;;;;;;;;;10.80;99.90;;;;;;5011807;28;20085;-73
2023/03/22 08:39:12;;;;;;;9.60;3.60;;;10.50;99.90;;;;;;5011019;28;19929;-73
2023/03/22 08:41:38;;;;;;;9.15;3.72;;;10.40;99.90;;;;;;5008343;28;20039;-73
2023/03/22 08:44:04;;;;;;;10.25;3.55;;;10.70;99.90;;;;;;4996146;28;20050;-72
2023/03/22 08:46:30;;;;;;;;;;;10.20;99.90;;;;;;5005471;28;20045;-72
2023/03/22 08:48:59;;;;;;;9.90;3.50;;;10.10;99.90;;;;;;5015318;28;19979;-73
2023/03/22 08:51:25;;;;;;;10.38;3.53;;;10.10;99.90;;;;;;5015258;28;20132;-73
2023/03/22 08:53:51;;;;;;;;;;;10.00;99.90;;;;;;5015021;28;20046;-72
2023/03/22 08:56:16;;;;;;;13.43;3.45;;;10.00;99.90;;;;;;5015066;28;19972;-73
2023/03/22 08:58:45;;;;;;;;;;;10.00;99.90;;;;;;4997671;28;20054;-73
2023/03/22 09:01:15;;;;;;;10.45;3.70;;;10.10;99.90;;;;;;4996058;28;19922;-73
2023/03/22 09:03:41;;;;;;;9.02;2.83;;;10.00;99.90;;;;;;4995057;28;20058;-73
2023/03/22 09:06:07;;;;;;;8.43;3.15;;;10.10;99.90;;;;;;4996579;28;20142;-72
2023/03/22 09:08:33;;;;;;;9.85;3.70;;;9.90;99.90;;;;;;4995870;28;20042;-72
2023/03/22 09:10:59;;;;;;;;;;;10.00;99.90;;;;;;5005821;28;20091;-72
2023/03/22 09:13:25;;;;;;;5.78;3.00;;;9.80;99.90;;;;;;5016011;28;19921;-73
2023/03/22 09:15:51;;;;;;;8.32;3.10;;;9.80;99.90;;;;;;5015388;28;20124;-73
2023/03/22 09:18:17;;;;;;;7.50;3.47;;;9.80;99.90;;;;;;5015527;28;20557;-72
2023/03/22 09:20:44;;;;;;;10.23;4.00;;;9.70;99.90;;;;;;5014810;28;20056;-73
2023/03/22 09:23:14;;;;;;;12.65;4.28;;;9.80;99.90;;;;;;5015264;28;20125;-73
2023/03/22 09:25:42;;;;;;;8.85;3.53;;;9.60;99.90;;;;;;5014639;28;20093;-73
2023/03/22 09:28:08;;;;;;;13.65;3.72;;;9.60;99.90;;;;;;5013778;28;20107;-73
2023/03/22 09:30:35;;;;;;;;;;;9.50;99.90;;;;;;5014490;28;20041;-73
2023/03/22 09:33:01;;;;;;;11.38;4.55;;;9.50;99.90;;;;;;5014589;28;19921;-73
2023/03/22 09:35:27;;;;;;;9.05;3.85;;;9.50;99.90;;;;;;5014995;28;20049;-74
2023/03/22 09:37:53;;;;;;;;;;;9.90;99.90;;;;;;5015379;28;20137;-73
2023/03/22 09:40:20;;;;;;;12.23;4.30;;;9.40;99.90;;;;;;5014458;28;19921;-73
2023/03/22 09:42:50;;;;;;;10.07;4.35;;;9.50;99.90;;;;;;5013655;28;20076;-73
2023/03/22 09:45:21;;;;;;;11.50;3.88;;;9.40;99.90;;;;;;5015568;28;20050;-73
2023/03/22 09:47:52;;;;;;;11.02;3.60;;;9.50;99.90;;;;;;5013366;28;20151;-73
2023/03/22 09:50:28;;;;;;;10.50;4.30;;;9.50;99.90;;;;;;4994848;28;20042;-73
2023/03/22 09:52:54;;;;;;;8.60;4.05;;;9.50;99.90;;;;;;4993466;28;20042;-73
2023/03/22 09:55:35;;;;;;;;;;;9.50;99.90;;;;;;4994672;28;20061;-73
2023/03/22 09:58:16;;;;;;;10.05;4.20;;;9.40;99.90;;;;;;4993805;28;19991;-73
2023/03/22 10:01:07;;;;;;;14.50;3.88;;;9.40;99.90;;;;;;4995269;28;20058;-74
2023/03/22 10:03:44;;;;;;;10.02;4.55;;;9.40;99.90;;;;;;4973734;28;20058;-73
2023/03/22 10:06:17;;;;;;;10.43;4.18;;;9.40;99.90;;;;;;4995670;28;20100;-73
2023/03/22 10:09:04;;;;;;;8.57;4.13;;;9.30;99.90;;;;;;4995570;28;20444;-73
2023/03/22 10:11:32;;;;;;;;;;;9.40;99.90;;;;;;4993868;28;20051;-73
2023/03/22 10:14:09;;;;;;;12.70;4.30;;;9.40;99.90;;;;;;4995546;28;19921;-73
2023/03/22 10:16:35;;;;;;;9.10;3.95;;;9.40;99.90;;;;;;5007906;28;20062;-73
2023/03/22 10:19:04;;;;;;;;;;;9.30;99.90;;;;;;5014769;28;20053;-72
2023/03/22 10:21:30;;;;;;;9.05;4.22;;;9.40;99.90;;;;;;5015209;28;19928;-73
2023/03/22 10:24:24;;;;;;;8.27;4.20;;;9.80;99.90;;;;;;4995027;28;20038;-73
2023/03/22 10:26:53;;;;;;;18.50;4.57;;;9.30;99.90;;;;;;4990000;28;20510;-73
2023/03/22 10:29:29;;;;;;;11.27;4.32;;;9.40;99.90;;;;;;5012668;28;20038;-73
2023/03/22 10:31:58;;;;;;;7.60;4.00;;;9.40;99.90;;;;;;5011962;28;20414;-73
2023/03/22 10:34:32;;;;;;;9.48;3.40;;;9.60;99.90;;;;;;5013399;28;20501;-73
2023/03/22 10:37:02;;;;;;;7.38;3.33;;;9.40;99.90;;;;;;5013498;28;20401;-73
2023/03/22 10:39:46;;;;;;;10.10;4.43;;;9.60;99.90;;;;;;5011382;28;20049;-73
2023/03/22 10:42:19;;;;;;;9.77;3.65;;;9.60;99.90;;;;;;5012879;28;20084;-73
2023/03/22 10:44:56;;;;;;;8.30;3.70;;;9.60;99.90;;;;;;5014449;28;20513;-73
2023/03/22 10:47:31;;;;;;;6.65;3.33;;;9.60;99.90;;;;;;5011659;28;20062;-73
2023/03/22 10:50:02;;;;;;;7.35;3.42;;;9.70;99.90;;;;;;5014090;28;20371;-73
2023/03/22 10:52:44;;;;;;;9.20;3.45;;;9.70;99.90;;;;;;5012651;28;20052;-73
2023/03/22 10:55:15;;;;;;;13.43;4.32;;;9.70;99.90;;;;;;4994535;28;20521;-73
2023/03/22 10:57:48;;;;;;;8.60;3.63;;;9.70;99.90;;;;;;4993058;28;20073;-73
2023/03/22 11:00:16;;;;;;;9.68;3.13;;;9.80;99.90;;;;;;4993872;28;20475;-73
2023/03/22 11:02:57;;;;;;;8.20;3.47;;;9.90;99.90;;;;;;4992991;28;20058;-73
2023/03/22 11:05:25;;;;;;;7.03;3.08;;;9.80;99.90;;;;;;5011211;28;20061;-73
2023/03/22 11:07:52;;;;;;;10.02;3.72;;;9.80;99.90;;;;;;5012149;28;20073;-73
2023/03/22 11:10:23;;;;;;;8.10;3.80;;;10.20;99.90;;;;;;5014239;28;20038;-73
2023/03/22 11:12:53;;;;;;;12.23;4.50;;;9.90;99.90;;;;;;5012042;28;20180;-73
2023/03/22 11:15:29;;;;;;;10.40;3.97;;;9.80;99.90;;;;;;5014723;28;20049;-73
2023/03/22 11:18:03;;;;;;;7.75;4.00;;;9.80;99.90;;;;;;5018132;28;20042;-73
2023/03/22 11:20:29;;;;;;;11.27;4.35;;;10.40;99.90;;;;;;5017213;28;20050;-72
2023/03/22 11:22:59;;;;;;;13.00;4.13;;;10.00;99.90;;;;;;5015551;28;20117;-73
2023/03/22 11:25:29;;;;;;;9.38;3.70;;;10.00;99.90;;;;;;4999368;28;20085;-73
2023/03/22 11:28:04;;;;;;;8.95;4.47;;;10.00;99.90;;;;;;4992157;28;20514;-73
2023/03/22 11:30:34;;;;;;;11.13;3.95;;;10.10;99.90;;;;;;4993527;28;20047;-73
2023/03/22 11:33:18;;;;;;;9.32;3.83;;;10.00;99.90;;;;;;5002315;28;20042;-74
2023/03/22 11:35:47;;;;;;;10.88;3.88;;;10.00;99.90;;;;;;4992806;28;20486;-73
2023/03/22 11:38:36;;;;;;;12.95;4.45;;;10.00;99.90;;;;;;4992412;28;20138;-73
2023/03/22 11:41:17;;;;;;;11.30;5.18;;;9.90;99.90;;;;;;4992842;28;20058;-73
2023/03/22 11:43:47;;;;;;;11.98;4.57;;;9.90;99.90;;;;;;5003327;28;20053;-73
2023/03/22 11:46:18;;;;;;;10.05;5.25;;;9.90;99.90;;;;;;4992876;28;20064;-73
2023/03/22 11:48:45;;;;;;;10.38;4.93;;;9.90;99.90;;;;;;5007804;28;20633;-74
2023/03/22 11:51:14;;;;;;;10.68;4.80;;;10.20;99.90;;;;;;5011486;28;20107;-74
2023/03/22 11:53:43;;;;;;;8.73;3.72;;;9.90;99.90;;;;;;5007494;28;20037;-74
2023/03/22 11:56:11;;;;;;;10.50;4.45;;;9.90;99.90;;;;;;5011909;28;20507;-74
2023/03/22 11:58:36;;;;;;;9.45;4.30;;;10.00;99.90;;;;;;5010948;28;20397;-73
2023/03/22 12:01:02;;;;;;;;;;;10.10;99.90;;;;;;5011706;28;20046;-73
2023/03/22 12:03:42;;;;;;;8.98;4.40;;;10.10;99.90;;;;;;5010250;28;19976;-73
2023/03/22 12:06:37;;;;;;;8.55;5.20;;;10.30;99.90;;;;;;5012282;28;20060;-74
2023/03/22 12:09:31;;;;;;;7.13;4.03;;;10.10;99.90;;;;;;5009616;28;20048;-72
2023/03/22 12:11:59;;;;;;;8.05;4.90;;;10.10;99.90;;;;;;5011288;28;20405;-72
2023/03/22 12:14:44;;;;;;;8.95;4.55;;;10.00;99.90;;;;;;5010985;28;20068;-73
2023/03/22 12:17:23;;;;;;;12.93;5.10;;;10.10;99.90;;;;;;5011264;28;20092;-73
2023/03/22 12:19:52;;;;;;;12.15;5.35;;;10.10;99.90;;;;;;5011407;28;20042;-73
2023/03/22 12:22:25;;;;;;;10.60;4.47;;;10.50;99.90;;;;;;5011089;28;20405;-71
2023/03/22 12:24:50;;;;;;;9.77;4.85;;;10.20;99.90;;;;;;5009435;28;20071;-71
2023/03/22 12:27:34;;;;;;;;;;;10.00;99.90;;;;;;5012298;28;20037;-71
2023/03/22 12:30:20;;;;;;;6.82;4.40;;;9.90;99.90;;;;;;5010936;28;19976;-71
2023/03/22 12:32:56;;;;;;;11.00;4.70;;;10.00;99.90;;;;;;5009897;28;20536;-71
2023/03/22 12:35:28;;;;;;;8.25;5.18;;;9.90;99.90;;;;;;5010829;28;20057;-71
2023/03/22 12:37:58;;;;;;;8.30;4.90;;;9.90;99.90;;;;;;5011823;28;20899;-72
2023/03/22 12:40:25;;;;;;;11.75;5.00;;;9.90;99.90;;;;;;5012209;28;20422;-73
2023/03/22 12:43:06;;;;;;;10.15;4.90;;;10.00;99.90;;;;;;5012658;28;20052;-73
2023/03/22 12:45:39;;;;;;;6.15;4.90;;;9.90;99.90;;;;;;5010633;28;20069;-73
2023/03/22 12:48:29;;;;;;;11.88;4.90;;;10.00;99.90;;;;;;5001197;28;20504;-74
2023/03/22 12:51:05;;;;;;;7.10;4.78;;;10.00;99.90;;;;;;4991707;28;20497;-72
2023/03/22 12:53:44;;;;;;;11.57;4.88;;;10.00;99.90;;;;;;4990782;28;20533;-75
2023/03/22 12:56:17;;;;;;;11.77;5.90;;;10.20;99.90;;;;;;4979667;28;20042;-73
2023/03/22 12:58:48;;;;;;;9.05;4.90;;;10.00;99.90;;;;;;4991714;28;20111;-75
2023/03/22 13:01:47;;;;;;;14.02;5.45;;;10.00;99.90;;;;;;4999536;28;20045;-72
2023/03/22 13:04:42;;;;;;;7.80;4.63;;;10.00;99.90;;;;;;5006499;28;20061;-72
2023/03/22 13:07:14;;;;;;;11.15;5.15;;;10.00;99.90;;;;;;4975102;28;20486;-72
2023/03/22 13:09:45;;;;;;;13.05;5.30;;;10.00;99.90;;;;;;5010784;28;20053;-71
2023/03/22 13:12:17;;;;;;;9.05;5.50;;;10.00;99.90;;;;;;5010937;28;20473;-72
2023/03/22 13:15:00;;;;;;;10.00;4.35;;;10.10;99.90;;;;;;5000471;28;20076;-72
2023/03/22 13:17:26;;;;;;;12.88;5.38;;;10.10;99.90;;;;;;4992366;28;20398;-72
2023/03/22 13:20:12;;;;;;;;;;;10.00;99.90;;;;;;4993270;28;20061;-72